sensor_id;sensor_type;location;lat;lon;timestamp;P1;durP1;ratioP1;P2;durP2;ratioP2
77802;SDS011;66993;48.256;16.422;2023-12-20T00:04:53;69.2;;;33.9;;
77802;SDS011;66993;48.256;16.422;2023-12-20T00:09:54;72.6;;;33.9;;
77802;SDS011;66993;48.256;16.422;2023-12-20T00:14:56;75.6;;;35.7;;
77802;SDS011;66993;48.256;16.422;2023-12-20T00:19:57;76.4;;;37.0;;
77802;SDS011;66993;48.256;16.422;2023-12-20T00:24:58;68.0;;;32.4;;
77802;SDS011;66993;48.256;16.422;2023-12-20T00:30:00;72.3;;;33.8;;
77802;SDS011;66993;48.256;16.422;2023-12-20T00:35:01;73.1;;;35.2;;
77802;SDS011;66993;48.256;16.422;2023-12-20T00:40:03;82.4;;;37.4;;
77802;SDS011;66993;48.256;16.422;2023-12-20T00:45:04;81.1;;;36.6;;
77802;SDS011;66993;48.256;16.422;2023-12-20T00:50:06;92.5;;;40.2;;
77802;SDS011;66993;48.256;16.422;2023-12-20T00:55:08;107.0;;;40.9;;
77802;SDS011;66993;48.256;16.422;2023-12-20T01:00:08;364.7;;;88.9;;
77802;SDS011;66993;48.256;16.422;2023-12-20T01:05:09;117.1;;;47.3;;
77802;SDS011;66993;48.256;16.422;2023-12-20T01:10:10;218.4;;;60.9;;
77802;SDS011;66993;48.256;16.422;2023-12-20T01:15:12;206.2;;;59.0;;
77802;SDS011;66993;48.256;16.422;2023-12-20T01:20:13;146.8;;;50.6;;
77802;SDS011;66993;48.256;16.422;2023-12-20T01:25:14;159.0;;;58.5;;
77802;SDS011;66993;48.256;16.422;2023-12-20T01:30:15;149.6;;;56.7;;
77802;SDS011;66993;48.256;16.422;2023-12-20T01:35:17;105.4;;;45.8;;
77802;SDS011;66993;48.256;16.422;2023-12-20T01:40:18;114.9;;;48.0;;
77802;SDS011;66993;48.256;16.422;2023-12-20T01:45:21;137.2;;;53.9;;
77802;SDS011;66993;48.256;16.422;2023-12-20T01:50:20;102.0;;;46.4;;
77802;SDS011;66993;48.256;16.422;2023-12-20T01:55:22;114.4;;;47.2;;
77802;SDS011;66993;48.256;16.422;2023-12-20T02:00:23;101.4;;;43.8;;
77802;SDS011;66993;48.256;16.422;2023-12-20T02:05:26;105.2;;;42.7;;
77802;SDS011;66993;48.256;16.422;2023-12-20T02:10:26;100.3;;;42.4;;
77802;SDS011;66993;48.256;16.422;2023-12-20T02:15:27;103.4;;;44.4;;
77802;SDS011;66993;48.256;16.422;2023-12-20T02:20:28;103.3;;;41.4;;
77802;SDS011;66993;48.256;16.422;2023-12-20T02:25:30;107.0;;;44.0;;
77802;SDS011;66993;48.256;16.422;2023-12-20T02:30:31;87.0;;;39.2;;
77802;SDS011;66993;48.256;16.422;2023-12-20T02:35:32;113.9;;;46.8;;
77802;SDS011;66993;48.256;16.422;2023-12-20T02:40:33;95.7;;;41.0;;
77802;SDS011;66993;48.256;16.422;2023-12-20T02:45:35;92.6;;;39.1;;
77802;SDS011;66993;48.256;16.422;2023-12-20T02:50:36;93.7;;;39.8;;
77802;SDS011;66993;48.256;16.422;2023-12-20T02:55:37;96.3;;;40.3;;
77802;SDS011;66993;48.256;16.422;2023-12-20T03:00:38;120.8;;;47.0;;
77802;SDS011;66993;48.256;16.422;2023-12-20T03:05:40;119.0;;;46.3;;
77802;SDS011;66993;48.256;16.422;2023-12-20T03:10:41;172.0;;;55.3;;
77802;SDS011;66993;48.256;16.422;2023-12-20T03:15:42;161.7;;;55.4;;
77802;SDS011;66993;48.256;16.422;2023-12-20T03:20:43;198.1;;;60.9;;
77802;SDS011;66993;48.256;16.422;2023-12-20T03:25:48;154.1;;;53.9;;
77802;SDS011;66993;48.256;16.422;2023-12-20T03:30:46;145.0;;;54.5;;
77802;SDS011;66993;48.256;16.422;2023-12-20T03:35:47;133.8;;;52.3;;
77802;SDS011;66993;48.256;16.422;2023-12-20T03:40:49;262.2;;;66.8;;
77802;SDS011;66993;48.256;16.422;2023-12-20T03:45:50;165.2;;;52.7;;
77802;SDS011;66993;48.256;16.422;2023-12-20T03:50:51;124.1;;;48.1;;
77802;SDS011;66993;48.256;16.422;2023-12-20T03:55:52;139.7;;;52.4;;
77802;SDS011;66993;48.256;16.422;2023-12-20T04:00:56;117.1;;;45.9;;
77802;SDS011;66993;48.256;16.422;2023-12-20T04:05:55;120.7;;;48.1;;
77802;SDS011;66993;48.256;16.422;2023-12-20T04:10:56;102.4;;;42.6;;
77802;SDS011;66993;48.256;16.422;2023-12-20T04:15:57;107.6;;;46.0;;
77802;SDS011;66993;48.256;16.422;2023-12-20T04:20:59;101.8;;;44.7;;
77802;SDS011;66993;48.256;16.422;2023-12-20T04:26:00;89.8;;;39.4;;
77802;SDS011;66993;48.256;16.422;2023-12-20T04:31:02;94.3;;;41.4;;
77802;SDS011;66993;48.256;16.422;2023-12-20T04:36:03;94.0;;;41.8;;
77802;SDS011;66993;48.256;16.422;2023-12-20T04:41:04;94.9;;;40.6;;
77802;SDS011;66993;48.256;16.422;2023-12-20T04:46:05;90.7;;;40.7;;
77802;SDS011;66993;48.256;16.422;2023-12-20T04:51:09;84.9;;;39.4;;
77802;SDS011;66993;48.256;16.422;2023-12-20T04:56:08;91.2;;;41.2;;
77802;SDS011;66993;48.256;16.422;2023-12-20T05:01:09;86.3;;;40.4;;
77802;SDS011;66993;48.256;16.422;2023-12-20T05:06:10;80.8;;;39.2;;
77802;SDS011;66993;48.256;16.422;2023-12-20T05:11:11;74.7;;;37.0;;
77802;SDS011;66993;48.256;16.422;2023-12-20T05:16:13;81.8;;;38.5;;
77802;SDS011;66993;48.256;16.422;2023-12-20T05:21:14;79.8;;;37.8;;
77802;SDS011;66993;48.256;16.422;2023-12-20T05:26:15;74.4;;;35.6;;
77802;SDS011;66993;48.256;16.422;2023-12-20T05:31:16;74.9;;;35.3;;
77802;SDS011;66993;48.256;16.422;2023-12-20T05:36:18;72.3;;;36.5;;
77802;SDS011;66993;48.256;16.422;2023-12-20T05:41:19;73.7;;;35.2;;
77802;SDS011;66993;48.256;16.422;2023-12-20T05:46:20;79.0;;;37.2;;
77802;SDS011;66993;48.256;16.422;2023-12-20T05:51:21;74.5;;;36.6;;
77802;SDS011;66993;48.256;16.422;2023-12-20T05:56:23;76.8;;;37.7;;
77802;SDS011;66993;48.256;16.422;2023-12-20T06:01:24;79.2;;;38.7;;
77802;SDS011;66993;48.256;16.422;2023-12-20T06:06:25;71.7;;;35.7;;
77802;SDS011;66993;48.256;16.422;2023-12-20T06:11:26;76.2;;;36.1;;
77802;SDS011;66993;48.256;16.422;2023-12-20T06:16:28;75.8;;;35.1;;
77802;SDS011;66993;48.256;16.422;2023-12-20T06:21:29;68.4;;;33.3;;
77802;SDS011;66993;48.256;16.422;2023-12-20T06:26:30;67.2;;;33.1;;
77802;SDS011;66993;48.256;16.422;2023-12-20T06:31:31;68.1;;;33.9;;
77802;SDS011;66993;48.256;16.422;2023-12-20T06:36:33;54.7;;;28.1;;
77802;SDS011;66993;48.256;16.422;2023-12-20T06:41:34;20.7;;;11.8;;
77802;SDS011;66993;48.256;16.422;2023-12-20T06:46:36;15.4;;;8.5;;
77802;SDS011;66993;48.256;16.422;2023-12-20T06:51:37;7.0;;;4.7;;
77802;SDS011;66993;48.256;16.422;2023-12-20T06:56:38;6.7;;;3.7;;
77802;SDS011;66993;48.256;16.422;2023-12-20T07:01:39;6.3;;;3.3;;
77802;SDS011;66993;48.256;16.422;2023-12-20T07:06:40;4.8;;;3.1;;
77802;SDS011;66993;48.256;16.422;2023-12-20T07:11:41;8.3;;;3.6;;
77802;SDS011;66993;48.256;16.422;2023-12-20T07:16:43;6.2;;;3.7;;
77802;SDS011;66993;48.256;16.422;2023-12-20T07:21:44;5.6;;;3.4;;
77802;SDS011;66993;48.256;16.422;2023-12-20T07:26:49;6.2;;;3.6;;
77802;SDS011;66993;48.256;16.422;2023-12-20T07:31:47;6.9;;;3.7;;
77802;SDS011;66993;48.256;16.422;2023-12-20T07:36:48;7.7;;;4.1;;
77802;SDS011;66993;48.256;16.422;2023-12-20T07:41:49;7.7;;;4.3;;
77802;SDS011;66993;48.256;16.422;2023-12-20T07:46:54;6.9;;;3.7;;
77802;SDS011;66993;48.256;16.422;2023-12-20T07:51:52;8.0;;;4.1;;
77802;SDS011;66993;48.256;16.422;2023-12-20T07:56:53;7.9;;;4.3;;
77802;SDS011;66993;48.256;16.422;2023-12-20T08:01:55;6.2;;;4.0;;
77802;SDS011;66993;48.256;16.422;2023-12-20T08:06:56;6.5;;;3.6;;
77802;SDS011;66993;48.256;16.422;2023-12-20T08:11:57;6.6;;;4.4;;
77802;SDS011;66993;48.256;16.422;2023-12-20T08:16:58;5.5;;;3.3;;
77802;SDS011;66993;48.256;16.422;2023-12-20T08:22:05;5.4;;;3.0;;
77802;SDS011;66993;48.256;16.422;2023-12-20T08:27:01;4.8;;;2.9;;
77802;SDS011;66993;48.256;16.422;2023-12-20T08:32:02;6.6;;;3.4;;
77802;SDS011;66993;48.256;16.422;2023-12-20T08:37:04;6.0;;;3.2;;
77802;SDS011;66993;48.256;16.422;2023-12-20T08:42:05;7.1;;;3.1;;
77802;SDS011;66993;48.256;16.422;2023-12-20T08:47:07;6.2;;;2.9;;
77802;SDS011;66993;48.256;16.422;2023-12-20T08:52:07;5.9;;;3.1;;
77802;SDS011;66993;48.256;16.422;2023-12-20T08:57:09;5.9;;;3.4;;
77802;SDS011;66993;48.256;16.422;2023-12-20T09:02:10;5.6;;;3.5;;
77802;SDS011;66993;48.256;16.422;2023-12-20T09:12:13;5.9;;;3.2;;
77802;SDS011;66993;48.256;16.422;2023-12-20T09:17:14;6.0;;;3.4;;
77802;SDS011;66993;48.256;16.422;2023-12-20T09:22:15;6.0;;;3.8;;
77802;SDS011;66993;48.256;16.422;2023-12-20T09:27:16;6.4;;;3.7;;
77802;SDS011;66993;48.256;16.422;2023-12-20T09:32:18;6.2;;;4.2;;
77802;SDS011;66993;48.256;16.422;2023-12-20T09:37:20;7.1;;;3.6;;
77802;SDS011;66993;48.256;16.422;2023-12-20T09:42:21;4.8;;;3.4;;
77802;SDS011;66993;48.256;16.422;2023-12-20T09:47:22;7.3;;;3.5;;
77802;SDS011;66993;48.256;16.422;2023-12-20T09:52:23;5.5;;;3.2;;
77802;SDS011;66993;48.256;16.422;2023-12-20T09:57:25;5.4;;;3.4;;
77802;SDS011;66993;48.256;16.422;2023-12-20T10:02:26;5.4;;;3.2;;
77802;SDS011;66993;48.256;16.422;2023-12-20T10:07:29;5.6;;;3.0;;
77802;SDS011;66993;48.256;16.422;2023-12-20T10:12:28;6.1;;;3.9;;
77802;SDS011;66993;48.256;16.422;2023-12-20T10:17:30;5.9;;;4.1;;
77802;SDS011;66993;48.256;16.422;2023-12-20T10:22:31;4.6;;;3.2;;
77802;SDS011;66993;48.256;16.422;2023-12-20T10:27:32;4.6;;;3.3;;
77802;SDS011;66993;48.256;16.422;2023-12-20T10:32:33;5.0;;;3.0;;
77802;SDS011;66993;48.256;16.422;2023-12-20T10:37:36;5.0;;;3.6;;
77802;SDS011;66993;48.256;16.422;2023-12-20T10:42:36;4.3;;;3.4;;
77802;SDS011;66993;48.256;16.422;2023-12-20T10:47:40;4.4;;;3.1;;
77802;SDS011;66993;48.256;16.422;2023-12-20T10:52:38;4.9;;;3.3;;
77802;SDS011;66993;48.256;16.422;2023-12-20T10:57:42;4.3;;;3.3;;
77802;SDS011;66993;48.256;16.422;2023-12-20T11:02:41;4.7;;;3.7;;
77802;SDS011;66993;48.256;16.422;2023-12-20T11:07:43;5.7;;;3.4;;
77802;SDS011;66993;48.256;16.422;2023-12-20T11:12:46;5.1;;;3.5;;
77802;SDS011;66993;48.256;16.422;2023-12-20T11:17:45;4.7;;;2.8;;
77802;SDS011;66993;48.256;16.422;2023-12-20T11:22:52;4.6;;;3.1;;
77802;SDS011;66993;48.256;16.422;2023-12-20T11:32:49;5.0;;;3.2;;
77802;SDS011;66993;48.256;16.422;2023-12-20T11:37:50;4.3;;;3.0;;
77802;SDS011;66993;48.256;16.422;2023-12-20T11:42:51;4.8;;;3.4;;
77802;SDS011;66993;48.256;16.422;2023-12-20T11:47:52;4.6;;;3.3;;
77802;SDS011;66993;48.256;16.422;2023-12-20T11:52:54;5.3;;;3.7;;
77802;SDS011;66993;48.256;16.422;2023-12-20T11:57:55;4.8;;;3.1;;
77802;SDS011;66993;48.256;16.422;2023-12-20T12:02:57;4.9;;;3.2;;
77802;SDS011;66993;48.256;16.422;2023-12-20T12:07:58;4.6;;;3.0;;
77802;SDS011;66993;48.256;16.422;2023-12-20T12:12:59;5.2;;;3.2;;
77802;SDS011;66993;48.256;16.422;2023-12-20T12:18:00;5.8;;;3.8;;
77802;SDS011;66993;48.256;16.422;2023-12-20T12:23:02;4.3;;;3.1;;
77802;SDS011;66993;48.256;16.422;2023-12-20T12:28:03;5.9;;;3.1;;
77802;SDS011;66993;48.256;16.422;2023-12-20T12:33:04;4.2;;;3.0;;
77802;SDS011;66993;48.256;16.422;2023-12-20T12:38:07;3.6;;;2.7;;
77802;SDS011;66993;48.256;16.422;2023-12-20T12:43:06;3.7;;;3.1;;
77802;SDS011;66993;48.256;16.422;2023-12-20T12:48:08;3.1;;;2.5;;
77802;SDS011;66993;48.256;16.422;2023-12-20T12:53:09;3.3;;;2.4;;
77802;SDS011;66993;48.256;16.422;2023-12-20T12:58:12;3.4;;;2.3;;
77802;SDS011;66993;48.256;16.422;2023-12-20T13:03:11;3.9;;;2.4;;
77802;SDS011;66993;48.256;16.422;2023-12-20T13:08:13;3.7;;;2.6;;
77802;SDS011;66993;48.256;16.422;2023-12-20T13:13:14;3.5;;;2.2;;
77802;SDS011;66993;48.256;16.422;2023-12-20T13:18:16;3.2;;;2.3;;
77802;SDS011;66993;48.256;16.422;2023-12-20T13:23:16;3.7;;;2.3;;
77802;SDS011;66993;48.256;16.422;2023-12-20T13:28:18;3.5;;;2.5;;
77802;SDS011;66993;48.256;16.422;2023-12-20T13:33:19;3.3;;;2.7;;
77802;SDS011;66993;48.256;16.422;2023-12-20T13:38:20;2.5;;;2.3;;
77802;SDS011;66993;48.256;16.422;2023-12-20T13:43:21;2.9;;;2.1;;
77802;SDS011;66993;48.256;16.422;2023-12-20T13:48:28;3.3;;;2.3;;
77802;SDS011;66993;48.256;16.422;2023-12-20T13:53:24;4.4;;;2.9;;
77802;SDS011;66993;48.256;16.422;2023-12-20T13:58:25;3.8;;;2.8;;
77802;SDS011;66993;48.256;16.422;2023-12-20T14:03:28;4.9;;;2.3;;
77802;SDS011;66993;48.256;16.422;2023-12-20T14:08:28;3.0;;;2.3;;
77802;SDS011;66993;48.256;16.422;2023-12-20T14:13:29;3.8;;;2.3;;
77802;SDS011;66993;48.256;16.422;2023-12-20T14:18:30;3.4;;;2.5;;
77802;SDS011;66993;48.256;16.422;2023-12-20T14:23:32;4.3;;;2.9;;
77802;SDS011;66993;48.256;16.422;2023-12-20T14:28:33;3.6;;;2.3;;
77802;SDS011;66993;48.256;16.422;2023-12-20T14:33:34;4.6;;;2.5;;
77802;SDS011;66993;48.256;16.422;2023-12-20T14:38:36;3.1;;;2.3;;
77802;SDS011;66993;48.256;16.422;2023-12-20T14:43:38;2.7;;;2.0;;
77802;SDS011;66993;48.256;16.422;2023-12-20T14:48:38;3.3;;;2.1;;
77802;SDS011;66993;48.256;16.422;2023-12-20T14:53:40;3.4;;;2.1;;
77802;SDS011;66993;48.256;16.422;2023-12-20T14:58:41;3.4;;;2.1;;
77802;SDS011;66993;48.256;16.422;2023-12-20T15:03:45;2.7;;;1.9;;
77802;SDS011;66993;48.256;16.422;2023-12-20T15:08:43;2.6;;;1.8;;
77802;SDS011;66993;48.256;16.422;2023-12-20T15:13:46;3.4;;;2.2;;
77802;SDS011;66993;48.256;16.422;2023-12-20T15:18:46;2.7;;;2.1;;
77802;SDS011;66993;48.256;16.422;2023-12-20T15:23:48;3.0;;;1.9;;
77802;SDS011;66993;48.256;16.422;2023-12-20T15:28:48;3.3;;;2.3;;
77802;SDS011;66993;48.256;16.422;2023-12-20T15:33:50;3.0;;;2.2;;
77802;SDS011;66993;48.256;16.422;2023-12-20T15:38:51;4.4;;;2.7;;
77802;SDS011;66993;48.256;16.422;2023-12-20T15:43:53;4.0;;;2.5;;
77802;SDS011;66993;48.256;16.422;2023-12-20T15:48:54;2.8;;;2.2;;
77802;SDS011;66993;48.256;16.422;2023-12-20T15:53:55;4.1;;;2.1;;
77802;SDS011;66993;48.256;16.422;2023-12-20T15:58:56;3.1;;;2.1;;
77802;SDS011;66993;48.256;16.422;2023-12-20T16:03:58;3.0;;;2.6;;
77802;SDS011;66993;48.256;16.422;2023-12-20T16:08:59;3.4;;;2.4;;
77802;SDS011;66993;48.256;16.422;2023-12-20T16:14:00;3.1;;;2.1;;
77802;SDS011;66993;48.256;16.422;2023-12-20T16:19:01;4.1;;;2.5;;
77802;SDS011;66993;48.256;16.422;2023-12-20T16:24:03;4.1;;;2.9;;
77802;SDS011;66993;48.256;16.422;2023-12-20T16:29:04;3.9;;;3.1;;
77802;SDS011;66993;48.256;16.422;2023-12-20T16:34:05;5.2;;;3.3;;
77802;SDS011;66993;48.256;16.422;2023-12-20T16:39:07;3.3;;;2.2;;
77802;SDS011;66993;48.256;16.422;2023-12-20T16:44:08;3.3;;;2.2;;
77802;SDS011;66993;48.256;16.422;2023-12-20T16:49:09;3.1;;;2.2;;
77802;SDS011;66993;48.256;16.422;2023-12-20T16:54:12;3.1;;;2.5;;
77802;SDS011;66993;48.256;16.422;2023-12-20T16:59:12;3.2;;;2.2;;
77802;SDS011;66993;48.256;16.422;2023-12-20T17:04:16;3.8;;;2.3;;
77802;SDS011;66993;48.256;16.422;2023-12-20T17:09:15;3.0;;;2.0;;
77802;SDS011;66993;48.256;16.422;2023-12-20T17:14:16;3.1;;;1.9;;
77802;SDS011;66993;48.256;16.422;2023-12-20T17:19:17;4.2;;;2.4;;
77802;SDS011;66993;48.256;16.422;2023-12-20T17:24:18;2.7;;;1.7;;
77802;SDS011;66993;48.256;16.422;2023-12-20T17:29:19;4.0;;;2.4;;
77802;SDS011;66993;48.256;16.422;2023-12-20T17:34:21;3.8;;;1.7;;
77802;SDS011;66993;48.256;16.422;2023-12-20T17:39:23;2.6;;;1.8;;
77802;SDS011;66993;48.256;16.422;2023-12-20T17:44:23;3.5;;;2.1;;
77802;SDS011;66993;48.256;16.422;2023-12-20T17:49:30;4.4;;;2.0;;
77802;SDS011;66993;48.256;16.422;2023-12-20T17:54:26;3.7;;;2.0;;
77802;SDS011;66993;48.256;16.422;2023-12-20T17:59:27;3.0;;;1.6;;
77802;SDS011;66993;48.256;16.422;2023-12-20T18:04:29;3.0;;;2.1;;
77802;SDS011;66993;48.256;16.422;2023-12-20T18:09:29;3.4;;;2.3;;
77802;SDS011;66993;48.256;16.422;2023-12-20T18:14:33;3.0;;;2.0;;
77802;SDS011;66993;48.256;16.422;2023-12-20T18:19:32;4.0;;;2.1;;
77802;SDS011;66993;48.256;16.422;2023-12-20T18:24:33;3.5;;;2.0;;
77802;SDS011;66993;48.256;16.422;2023-12-20T18:29:35;3.9;;;2.4;;
77802;SDS011;66993;48.256;16.422;2023-12-20T18:34:36;4.9;;;3.0;;
77802;SDS011;66993;48.256;16.422;2023-12-20T18:39:37;4.2;;;2.5;;
77802;SDS011;66993;48.256;16.422;2023-12-20T18:44:40;4.2;;;2.4;;
77802;SDS011;66993;48.256;16.422;2023-12-20T18:49:40;3.8;;;2.6;;
77802;SDS011;66993;48.256;16.422;2023-12-20T18:54:42;3.8;;;2.3;;
77802;SDS011;66993;48.256;16.422;2023-12-20T18:59:42;7.0;;;3.0;;
77802;SDS011;66993;48.256;16.422;2023-12-20T19:04:44;4.9;;;2.5;;
77802;SDS011;66993;48.256;16.422;2023-12-20T19:09:45;3.8;;;2.4;;
77802;SDS011;66993;48.256;16.422;2023-12-20T19:14:46;4.6;;;2.3;;
77802;SDS011;66993;48.256;16.422;2023-12-20T19:19:48;4.3;;;2.6;;
77802;SDS011;66993;48.256;16.422;2023-12-20T19:24:49;4.4;;;3.0;;
77802;SDS011;66993;48.256;16.422;2023-12-20T19:29:50;4.5;;;2.8;;
77802;SDS011;66993;48.256;16.422;2023-12-20T19:34:52;3.4;;;2.4;;
77802;SDS011;66993;48.256;16.422;2023-12-20T19:39:53;3.8;;;2.2;;
77802;SDS011;66993;48.256;16.422;2023-12-20T19:44:54;3.5;;;2.2;;
77802;SDS011;66993;48.256;16.422;2023-12-20T19:49:55;3.9;;;2.5;;
77802;SDS011;66993;48.256;16.422;2023-12-20T19:54:59;4.4;;;2.3;;
77802;SDS011;66993;48.256;16.422;2023-12-20T19:59:58;6.0;;;2.0;;
77802;SDS011;66993;48.256;16.422;2023-12-20T20:04:59;4.5;;;2.3;;
77802;SDS011;66993;48.256;16.422;2023-12-20T20:10:01;3.8;;;2.4;;
77802;SDS011;66993;48.256;16.422;2023-12-20T20:15:03;4.6;;;2.5;;
77802;SDS011;66993;48.256;16.422;2023-12-20T20:20:04;4.2;;;2.7;;
77802;SDS011;66993;48.256;16.422;2023-12-20T20:25:05;5.3;;;2.6;;
77802;SDS011;66993;48.256;16.422;2023-12-20T20:30:06;7.5;;;3.8;;
77802;SDS011;66993;48.256;16.422;2023-12-20T20:35:10;6.1;;;3.7;;
77802;SDS011;66993;48.256;16.422;2023-12-20T20:40:09;6.4;;;3.7;;
77802;SDS011;66993;48.256;16.422;2023-12-20T20:45:10;7.0;;;3.5;;
77802;SDS011;66993;48.256;16.422;2023-12-20T20:50:14;6.8;;;3.7;;
77802;SDS011;66993;48.256;16.422;2023-12-20T20:55:12;4.7;;;3.3;;
77802;SDS011;66993;48.256;16.422;2023-12-20T21:00:14;6.0;;;3.1;;
77802;SDS011;66993;48.256;16.422;2023-12-20T21:05:15;5.0;;;3.4;;
77802;SDS011;66993;48.256;16.422;2023-12-20T21:10:16;4.5;;;2.8;;
77802;SDS011;66993;48.256;16.422;2023-12-20T21:15:18;4.3;;;2.7;;
77802;SDS011;66993;48.256;16.422;2023-12-20T21:20:19;5.3;;;2.6;;
77802;SDS011;66993;48.256;16.422;2023-12-20T21:25:23;5.7;;;2.7;;
77802;SDS011;66993;48.256;16.422;2023-12-20T21:30:21;4.2;;;2.7;;
77802;SDS011;66993;48.256;16.422;2023-12-20T21:35:23;5.0;;;3.0;;
77802;SDS011;66993;48.256;16.422;2023-12-20T21:40:24;4.4;;;2.6;;
77802;SDS011;66993;48.256;16.422;2023-12-20T21:45:25;5.3;;;2.4;;
77802;SDS011;66993;48.256;16.422;2023-12-20T21:50:26;4.3;;;2.5;;
77802;SDS011;66993;48.256;16.422;2023-12-20T21:55:28;5.2;;;2.8;;
77802;SDS011;66993;48.256;16.422;2023-12-20T22:00:31;4.8;;;2.7;;
77802;SDS011;66993;48.256;16.422;2023-12-20T22:05:30;5.3;;;2.6;;
77802;SDS011;66993;48.256;16.422;2023-12-20T22:10:32;5.1;;;2.2;;
77802;SDS011;66993;48.256;16.422;2023-12-20T22:15:33;5.2;;;2.3;;
77802;SDS011;66993;48.256;16.422;2023-12-20T22:20:35;5.4;;;2.5;;
77802;SDS011;66993;48.256;16.422;2023-12-20T22:25:35;4.9;;;2.7;;
77802;SDS011;66993;48.256;16.422;2023-12-20T22:30:37;3.8;;;1.9;;
77802;SDS011;66993;48.256;16.422;2023-12-20T22:35:38;4.2;;;2.2;;
77802;SDS011;66993;48.256;16.422;2023-12-20T22:40:39;6.4;;;2.7;;
77802;SDS011;66993;48.256;16.422;2023-12-20T22:45:40;4.4;;;2.5;;
77802;SDS011;66993;48.256;16.422;2023-12-20T22:50:42;6.7;;;2.4;;
77802;SDS011;66993;48.256;16.422;2023-12-20T22:55:43;4.0;;;2.5;;
77802;SDS011;66993;48.256;16.422;2023-12-20T23:00:44;4.3;;;2.3;;
77802;SDS011;66993;48.256;16.422;2023-12-20T23:05:46;3.8;;;2.1;;
77802;SDS011;66993;48.256;16.422;2023-12-20T23:10:47;5.8;;;2.3;;
77802;SDS011;66993;48.256;16.422;2023-12-20T23:15:48;4.4;;;2.2;;
77802;SDS011;66993;48.256;16.422;2023-12-20T23:20:49;3.4;;;2.0;;
77802;SDS011;66993;48.256;16.422;2023-12-20T23:25:50;5.1;;;2.3;;
77802;SDS011;66993;48.256;16.422;2023-12-20T23:30:52;4.9;;;2.3;;
77802;SDS011;66993;48.256;16.422;2023-12-20T23:35:53;3.8;;;2.6;;
77802;SDS011;66993;48.256;16.422;2023-12-20T23:40:54;4.0;;;2.2;;
77802;SDS011;66993;48.256;16.422;2023-12-20T23:45:56;4.1;;;2.2;;
77802;SDS011;66993;48.256;16.422;2023-12-20T23:50:57;4.9;;;2.2;;
77802;SDS011;66993;48.256;16.422;2023-12-20T23:55:58;3.8;;;2.1;;
